createdAt,value
2017-12-19T00:00:36.339Z,111.50
2017-12-19T00:01:36.303Z,122.50
2017-12-19T00:02:36.319Z,125.70
2017-12-19T00:03:36.334Z,121.30
2017-12-19T00:04:36.349Z,116.60
2017-12-19T00:05:36.364Z,122.20
2017-12-19T00:06:36.380Z,123.50
2017-12-19T00:07:36.399Z,116.90
2017-12-19T00:08:36.410Z,110.10
2017-12-19T00:09:36.426Z,129.20
2017-12-19T00:10:36.440Z,134.00
2017-12-19T00:11:36.456Z,131.00
2017-12-19T00:12:36.472Z,123.10
2017-12-19T00:13:36.489Z,131.40
2017-12-19T00:14:36.501Z,129.60
2017-12-19T00:15:36.518Z,132.70
2017-12-19T00:16:36.534Z,126.10
2017-12-19T00:17:36.547Z,120.90
2017-12-19T00:18:36.564Z,118.50
2017-12-19T00:19:36.578Z,126.90
2017-12-19T00:20:36.596Z,113.70
2017-12-19T00:21:36.609Z,140.30
2017-12-19T00:22:36.625Z,117.20
2017-12-19T00:23:36.641Z,124.90
2017-12-19T00:24:36.655Z,116.90
2017-12-19T00:25:36.673Z,129.30
2017-12-19T00:26:36.692Z,133.70
2017-12-19T00:27:36.702Z,125.70
2017-12-19T00:28:36.717Z,131.40
2017-12-19T00:29:36.732Z,123.60
2017-12-19T00:30:36.769Z,114.70
2017-12-19T00:31:36.764Z,107.30
2017-12-19T00:32:36.778Z,106.70
2017-12-19T00:33:36.793Z,112.20
2017-12-19T00:34:36.809Z,112.80
2017-12-19T00:35:36.825Z,115.90
2017-12-19T00:36:36.839Z,115.70
2017-12-19T00:37:36.856Z,106.60
2017-12-19T00:38:36.874Z,104.20
2017-12-19T00:39:36.887Z,103.90
2017-12-19T00:40:36.903Z,100.40
2017-12-19T00:41:36.923Z,95.70
2017-12-19T00:42:36.933Z,98.30
2017-12-19T00:43:36.949Z,94.10
2017-12-19T00:44:36.963Z,97.50
2017-12-19T00:45:36.979Z,90.80
2017-12-19T00:46:36.993Z,100.20
2017-12-19T00:47:37.009Z,95.60
2017-12-19T00:48:37.024Z,94.50
2017-12-19T00:49:37.040Z,102.30
2017-12-19T00:50:37.055Z,93.90
2017-12-19T00:51:37.070Z,101.20
2017-12-19T00:52:37.086Z,105.00
2017-12-19T00:53:37.101Z,103.30
2017-12-19T00:54:37.120Z,102.40
2017-12-19T00:55:37.131Z,97.70
2017-12-19T00:56:37.147Z,100.50
2017-12-19T00:57:37.161Z,97.30
2017-12-19T00:58:37.176Z,98.90
2017-12-19T00:59:37.191Z,103.40
2017-12-19T01:00:37.207Z,97.70
2017-12-19T01:01:37.222Z,99.20
2017-12-19T01:02:37.238Z,100.90
2017-12-19T01:03:37.253Z,104.60
2017-12-19T01:04:37.269Z,101.80
2017-12-19T01:05:37.282Z,101.30
2017-12-19T01:06:37.299Z,101.30
2017-12-19T01:07:37.315Z,102.10
2017-12-19T01:08:37.328Z,103.30
2017-12-19T01:09:37.344Z,97.80
2017-12-19T01:10:37.360Z,101.60
2017-12-19T01:11:37.376Z,104.60
2017-12-19T01:12:37.390Z,102.20
2017-12-19T01:13:37.405Z,98.70
2017-12-19T01:14:37.420Z,104.30
2017-12-19T01:15:37.436Z,101.80
2017-12-19T01:16:37.456Z,97.70
2017-12-19T01:17:37.465Z,94.30
2017-12-19T01:18:37.484Z,92.30
2017-12-19T01:19:37.497Z,95.60
2017-12-19T01:20:37.511Z,100.70
2017-12-19T01:21:37.526Z,102.90
2017-12-19T01:22:37.543Z,95.00
2017-12-19T01:23:37.557Z,106.30
2017-12-19T01:24:37.574Z,100.00
2017-12-19T01:25:37.588Z,103.20
2017-12-19T01:26:37.604Z,97.70
2017-12-19T01:27:37.619Z,91.90
2017-12-19T01:28:37.633Z,93.30
2017-12-19T01:29:37.648Z,89.90
2017-12-19T01:30:37.664Z,98.40
2017-12-19T01:31:37.679Z,104.40
2017-12-19T01:32:37.696Z,94.40
2017-12-19T01:33:37.711Z,98.50
2017-12-19T01:34:37.726Z,99.60
2017-12-19T01:35:37.742Z,96.50
2017-12-19T01:36:37.757Z,97.90
2017-12-19T01:37:37.772Z,93.30
2017-12-19T01:38:37.787Z,91.90
2017-12-19T01:39:37.802Z,86.00
2017-12-19T01:40:37.817Z,92.40
2017-12-19T01:41:37.831Z,83.50
2017-12-19T01:42:37.848Z,83.40
2017-12-19T01:43:37.863Z,85.90
2017-12-19T01:44:37.877Z,88.20
2017-12-19T01:45:37.893Z,92.80
2017-12-19T01:46:37.911Z,82.60
2017-12-19T01:47:37.926Z,90.50
2017-12-19T01:48:37.940Z,88.00
2017-12-19T01:49:37.959Z,90.70
2017-12-19T01:50:37.968Z,84.80
2017-12-19T01:51:37.985Z,90.20
2017-12-19T01:52:38.003Z,89.20
2017-12-19T01:53:38.016Z,88.60
2017-12-19T01:54:38.030Z,88.40
2017-12-19T01:55:38.046Z,81.80
2017-12-19T01:56:38.062Z,89.50
2017-12-19T01:57:38.075Z,84.80
2017-12-19T01:58:38.091Z,80.80
2017-12-19T01:59:38.107Z,82.30
2017-12-19T02:00:38.123Z,85.20
2017-12-19T02:01:38.137Z,86.20
2017-12-19T02:02:38.152Z,84.60
2017-12-19T02:03:38.166Z,85.00
2017-12-19T02:04:38.184Z,85.70
2017-12-19T02:05:38.198Z,83.20
2017-12-19T02:06:38.213Z,86.60
2017-12-19T02:07:38.229Z,84.10
2017-12-19T02:08:38.243Z,100.60
2017-12-19T02:09:38.258Z,103.00
2017-12-19T02:10:38.273Z,98.60
2017-12-19T02:11:38.290Z,88.90
2017-12-19T02:12:38.305Z,100.30
2017-12-19T02:13:38.318Z,95.40
2017-12-19T02:14:38.334Z,87.20
2017-12-19T02:15:38.351Z,85.10
2017-12-19T02:16:38.364Z,95.50
2017-12-19T02:17:38.381Z,90.30
2017-12-19T02:18:38.396Z,94.80
2017-12-19T02:19:38.413Z,99.30
2017-12-19T02:20:38.426Z,106.40
2017-12-19T02:21:38.441Z,92.50
2017-12-19T02:22:38.458Z,90.80
2017-12-19T02:23:38.473Z,106.90
2017-12-19T02:24:38.488Z,99.30
2017-12-19T02:25:38.502Z,88.60
2017-12-19T02:26:38.519Z,98.60
2017-12-19T02:27:38.534Z,102.20
2017-12-19T02:28:38.551Z,89.90
2017-12-19T02:29:38.564Z,99.60
2017-12-19T02:30:38.581Z,107.60
2017-12-19T02:31:38.596Z,105.60
2017-12-19T02:32:38.611Z,104.20
2017-12-19T02:33:38.626Z,103.00
2017-12-19T02:34:38.642Z,107.90
2017-12-19T02:35:38.657Z,106.60
2017-12-19T02:36:38.673Z,101.40
2017-12-19T02:37:38.688Z,98.10
2017-12-19T02:38:38.703Z,98.90
2017-12-19T02:39:38.719Z,89.60
2017-12-19T02:40:38.735Z,109.10
2017-12-19T02:41:38.751Z,103.20
2017-12-19T02:42:38.765Z,94.70
2017-12-19T02:43:38.782Z,97.40
2017-12-19T02:44:38.796Z,93.40
2017-12-19T02:45:38.811Z,96.90
2017-12-19T02:46:38.828Z,89.30
2017-12-19T02:47:38.844Z,98.00
2017-12-19T02:48:38.908Z,95.00
2017-12-19T02:49:38.873Z,93.50
2017-12-19T02:50:38.888Z,96.50
2017-12-19T02:51:38.906Z,96.10
2017-12-19T02:52:38.921Z,93.80
2017-12-19T02:53:38.936Z,93.00
2017-12-19T02:54:38.952Z,100.80
2017-12-19T02:55:38.968Z,102.90
2017-12-19T02:56:38.984Z,97.10
2017-12-19T02:57:38.999Z,89.50
2017-12-19T02:58:39.015Z,96.60
2017-12-19T02:59:39.029Z,101.00
2017-12-19T03:00:39.046Z,95.50
2017-12-19T03:01:39.092Z,101.00
2017-12-19T03:02:39.078Z,89.00
2017-12-19T03:03:39.093Z,97.70
2017-12-19T03:04:39.109Z,97.60
2017-12-19T03:05:39.128Z,104.30
2017-12-19T03:06:39.139Z,91.70
2017-12-19T03:07:39.155Z,95.70
2017-12-19T03:08:39.170Z,92.70
2017-12-19T03:09:39.186Z,99.30
2017-12-19T03:10:39.202Z,88.90
2017-12-19T03:11:39.219Z,95.00
2017-12-19T03:12:39.234Z,101.00
2017-12-19T03:13:39.249Z,102.50
2017-12-19T03:14:39.264Z,105.90
2017-12-19T03:15:39.280Z,104.10
2017-12-19T03:16:39.297Z,99.90
2017-12-19T03:17:39.310Z,107.20
2017-12-19T03:18:39.327Z,103.40
2017-12-19T03:19:39.350Z,107.70
2017-12-19T03:20:39.359Z,111.20
2017-12-19T03:21:39.373Z,104.20
2017-12-19T03:22:39.388Z,115.80
2017-12-19T03:23:39.405Z,118.40
2017-12-19T03:24:39.420Z,113.10
2017-12-19T03:25:39.437Z,116.00
2017-12-19T03:26:39.452Z,107.60
2017-12-19T03:27:39.468Z,102.00
2017-12-19T03:28:39.484Z,109.10
2017-12-19T03:29:39.497Z,105.20
2017-12-19T03:30:39.515Z,103.60
2017-12-19T03:31:39.530Z,111.40
2017-12-19T03:32:39.545Z,111.60
2017-12-19T03:33:39.560Z,106.40
2017-12-19T03:34:39.575Z,103.40
2017-12-19T03:35:39.591Z,118.00
2017-12-19T03:36:39.608Z,109.60
2017-12-19T03:37:39.621Z,106.20
2017-12-19T03:38:39.637Z,113.50
2017-12-19T03:39:39.655Z,101.80
2017-12-19T03:40:39.669Z,97.70
2017-12-19T03:41:39.685Z,112.10
2017-12-19T03:42:39.700Z,120.60
2017-12-19T03:43:39.717Z,109.50
2017-12-19T03:44:39.731Z,105.40
2017-12-19T03:45:39.747Z,111.20
2017-12-19T03:46:39.763Z,105.00
2017-12-19T03:47:39.778Z,111.70
2017-12-19T03:48:39.796Z,106.70
2017-12-19T03:49:39.809Z,105.70
2017-12-19T03:50:39.826Z,103.00
2017-12-19T03:51:39.842Z,109.30
2017-12-19T03:52:39.856Z,112.10
2017-12-19T03:53:39.872Z,109.10
2017-12-19T03:54:39.888Z,98.80
2017-12-19T03:55:39.902Z,106.50
2017-12-19T03:56:39.970Z,96.40
2017-12-19T03:57:39.935Z,105.50
2017-12-19T03:58:39.951Z,99.70
2017-12-19T03:59:39.966Z,101.10
2017-12-19T04:00:39.983Z,90.10
2017-12-19T04:01:39.997Z,92.90
2017-12-19T04:02:40.014Z,100.40
2017-12-19T04:03:40.028Z,104.50
2017-12-19T04:04:40.044Z,95.20
2017-12-19T04:05:40.060Z,105.70
2017-12-19T04:06:40.075Z,102.00
2017-12-19T04:07:40.091Z,95.70
2017-12-19T04:08:40.206Z,101.50
2017-12-19T04:09:40.127Z,100.20
2017-12-19T04:10:40.137Z,120.50
2017-12-19T04:11:40.153Z,100.10
2017-12-19T04:12:40.170Z,97.80
2017-12-19T04:13:40.184Z,107.10
2017-12-19T04:14:40.200Z,95.70
2017-12-19T04:15:40.216Z,105.70
2017-12-19T04:16:40.336Z,95.60
2017-12-19T04:17:40.247Z,101.30
2017-12-19T04:18:40.267Z,105.00
2017-12-19T04:19:40.279Z,101.50
2017-12-19T04:20:40.295Z,101.90
2017-12-19T04:21:40.310Z,97.30
2017-12-19T04:22:40.327Z,99.00
2017-12-19T04:23:40.342Z,99.30
2017-12-19T04:24:40.359Z,105.10
2017-12-19T04:25:40.374Z,108.60
2017-12-19T04:26:40.389Z,98.30
2017-12-19T04:27:40.405Z,93.80
2017-12-19T04:28:40.422Z,102.60
2017-12-19T04:29:40.436Z,102.80
2017-12-19T04:30:40.501Z,101.60
2017-12-19T04:31:40.468Z,107.10
2017-12-19T04:32:40.482Z,117.70
2017-12-19T04:33:40.498Z,115.20
2017-12-19T04:34:40.515Z,101.90
2017-12-19T04:35:40.531Z,106.10
2017-12-19T04:36:40.550Z,101.30
2017-12-19T04:37:40.562Z,103.40
2017-12-19T04:38:40.579Z,109.40
2017-12-19T04:39:40.593Z,103.40
2017-12-19T04:40:40.610Z,115.80
2017-12-19T04:41:40.623Z,110.40
2017-12-19T04:42:40.639Z,108.20
2017-12-19T04:43:40.663Z,104.40
2017-12-19T04:44:40.671Z,113.80
2017-12-19T04:45:40.686Z,102.20
2017-12-19T04:46:40.702Z,100.40
2017-12-19T04:47:40.719Z,112.40
2017-12-19T04:48:40.735Z,102.90
2017-12-19T04:49:40.750Z,100.50
2017-12-19T04:50:40.766Z,102.70
2017-12-19T04:51:40.781Z,100.80
2017-12-19T04:52:40.798Z,107.30
2017-12-19T04:53:40.812Z,104.70
2017-12-19T04:54:40.828Z,95.70
2017-12-19T04:55:40.846Z,110.90
2017-12-19T04:56:40.861Z,101.90
2017-12-19T04:57:40.876Z,115.00
2017-12-19T04:58:40.893Z,114.00
2017-12-19T04:59:40.908Z,103.10
2017-12-19T05:00:40.924Z,113.40
2017-12-19T05:01:40.938Z,112.90
2017-12-19T05:02:40.955Z,121.80
2017-12-19T05:03:40.971Z,113.00
2017-12-19T05:04:40.987Z,112.40
2017-12-19T05:05:41.001Z,110.30
2017-12-19T05:06:41.017Z,111.70
2017-12-19T05:07:41.035Z,114.20
2017-12-19T05:08:41.049Z,119.20
2017-12-19T05:09:41.065Z,105.40
2017-12-19T05:10:41.080Z,106.00
2017-12-19T05:11:41.097Z,116.80
2017-12-19T05:12:41.113Z,128.40
2017-12-19T05:13:41.128Z,113.90
2017-12-19T05:14:41.144Z,109.60
2017-12-19T05:15:41.159Z,120.10
2017-12-19T05:16:41.175Z,118.10
2017-12-19T05:17:41.190Z,116.40
2017-12-19T05:18:41.206Z,128.30
2017-12-19T05:19:41.223Z,127.00
2017-12-19T05:20:41.242Z,121.10
2017-12-19T05:21:41.255Z,129.80
2017-12-19T05:22:41.270Z,137.30
2017-12-19T05:23:41.286Z,131.10
2017-12-19T05:24:41.303Z,136.20
2017-12-19T05:25:41.319Z,136.40
2017-12-19T05:26:41.333Z,130.40
2017-12-19T05:27:41.350Z,124.50
2017-12-19T05:28:41.365Z,149.30
2017-12-19T05:29:41.380Z,131.70
2017-12-19T05:30:41.396Z,149.50
2017-12-19T05:31:41.412Z,155.20
2017-12-19T05:32:41.429Z,154.50
2017-12-19T05:33:41.445Z,158.00
2017-12-19T05:34:41.461Z,159.70
2017-12-19T05:35:41.477Z,146.50
2017-12-19T05:36:41.492Z,155.40
2017-12-19T05:37:41.507Z,143.70
2017-12-19T05:38:41.523Z,141.50
2017-12-19T05:39:41.541Z,150.10
2017-12-19T05:40:41.559Z,158.50
2017-12-19T05:41:41.570Z,147.80
2017-12-19T05:42:41.587Z,150.30
2017-12-19T05:43:41.603Z,143.50
2017-12-19T05:44:41.617Z,143.90
2017-12-19T05:45:41.633Z,153.60
2017-12-19T05:46:41.649Z,146.50
2017-12-19T05:47:41.666Z,145.60
2017-12-19T05:48:41.682Z,148.80
2017-12-19T05:49:41.696Z,139.60
2017-12-19T05:50:41.713Z,149.30
2017-12-19T05:51:41.731Z,128.30
2017-12-19T05:52:41.744Z,139.60
2017-12-19T05:53:41.760Z,135.40
2017-12-19T05:54:41.776Z,130.80
2017-12-19T05:55:41.791Z,136.00
2017-12-19T05:56:41.807Z,141.10
2017-12-19T05:57:41.828Z,134.90
2017-12-19T05:58:41.837Z,137.80
2017-12-19T05:59:41.856Z,150.40
2017-12-19T06:00:41.925Z,140.30
2017-12-19T06:01:41.885Z,163.60
2017-12-19T06:02:41.901Z,146.50
2017-12-19T06:03:41.916Z,134.90
2017-12-19T06:04:41.933Z,143.00
2017-12-19T06:05:41.947Z,141.40
2017-12-19T06:06:41.964Z,153.60
2017-12-19T06:07:41.980Z,147.10
2017-12-19T06:08:41.995Z,141.30
2017-12-19T06:09:42.010Z,145.00
2017-12-19T06:10:42.025Z,151.00
2017-12-19T06:11:42.041Z,148.10
2017-12-19T06:12:42.058Z,144.00
2017-12-19T06:13:42.073Z,145.80
2017-12-19T06:14:42.092Z,146.70
2017-12-19T06:15:42.105Z,158.00
2017-12-19T06:16:42.120Z,146.80
2017-12-19T06:17:42.136Z,146.50
2017-12-19T06:18:42.152Z,170.70
2017-12-19T06:19:42.167Z,152.60
2017-12-19T06:20:42.184Z,158.80
2017-12-19T06:21:42.198Z,168.70
2017-12-19T06:22:42.214Z,158.60
2017-12-19T06:23:42.231Z,165.10
2017-12-19T06:24:42.245Z,150.10
2017-12-19T06:25:42.260Z,166.20
2017-12-19T06:26:42.276Z,163.40
2017-12-19T06:27:42.294Z,156.60
2017-12-19T06:28:42.308Z,154.40
2017-12-19T06:29:42.323Z,149.70
2017-12-19T06:30:42.340Z,155.90
2017-12-19T06:31:42.356Z,143.80
2017-12-19T06:32:42.372Z,150.10
2017-12-19T06:33:42.386Z,138.90
2017-12-19T06:34:42.403Z,147.10
2017-12-19T06:35:42.419Z,148.60
2017-12-19T06:36:42.434Z,146.10
2017-12-19T06:37:42.451Z,135.40
2017-12-19T06:38:42.468Z,142.10
2017-12-19T06:39:42.481Z,149.50
2017-12-19T06:40:42.497Z,159.70
2017-12-19T06:41:42.512Z,134.40
2017-12-19T06:42:42.528Z,146.60
2017-12-19T06:43:42.545Z,149.00
2017-12-19T06:44:42.561Z,144.60
2017-12-19T06:45:42.576Z,140.70
2017-12-19T06:46:42.592Z,149.20
2017-12-19T06:47:42.607Z,139.70
2017-12-19T06:48:42.625Z,141.30
2017-12-19T06:49:42.640Z,142.30
2017-12-19T06:50:42.656Z,141.30
2017-12-19T06:51:42.672Z,141.80
2017-12-19T06:52:42.686Z,121.60
2017-12-19T06:53:42.703Z,142.20
2017-12-19T06:54:42.719Z,132.70
2017-12-19T06:55:42.736Z,135.20
2017-12-19T06:56:42.752Z,133.80
2017-12-19T06:57:42.765Z,138.00
2017-12-19T06:58:42.832Z,121.70
2017-12-19T06:59:42.798Z,139.70
2017-12-19T07:00:42.815Z,136.20
2017-12-19T07:01:42.829Z,132.00
2017-12-19T07:02:42.846Z,133.00
2017-12-19T07:03:42.862Z,135.70
2017-12-19T07:04:42.878Z,125.90
2017-12-19T07:05:42.894Z,130.70
2017-12-19T07:06:42.909Z,122.10
2017-12-19T07:07:42.927Z,132.10
2017-12-19T07:08:42.942Z,138.00
2017-12-19T07:09:42.957Z,134.70
2017-12-19T07:10:42.974Z,119.60
2017-12-19T07:11:42.990Z,118.70
2017-12-19T07:12:43.005Z,136.90
2017-12-19T07:13:43.022Z,122.80
2017-12-19T07:14:43.038Z,126.90
2017-12-19T07:15:43.054Z,142.90
2017-12-19T07:16:43.069Z,129.60
2017-12-19T07:17:43.085Z,127.50
2017-12-19T07:18:43.100Z,129.30
2017-12-19T07:19:43.118Z,133.40
2017-12-19T07:20:43.134Z,117.20
2017-12-19T07:21:43.149Z,130.90
2017-12-19T07:22:43.165Z,138.50
2017-12-19T07:23:43.181Z,137.50
2017-12-19T07:24:43.197Z,143.10
2017-12-19T07:25:43.214Z,147.30
2017-12-19T07:26:43.229Z,138.90
2017-12-19T07:27:43.246Z,135.30
2017-12-19T07:28:43.260Z,140.80
2017-12-19T07:29:43.327Z,151.80
2017-12-19T07:30:43.293Z,132.00
2017-12-19T07:31:43.309Z,133.80
2017-12-19T07:32:43.326Z,139.30
2017-12-19T07:33:43.342Z,130.10
2017-12-19T07:34:43.357Z,144.40
2017-12-19T07:35:43.374Z,128.60
2017-12-19T07:36:43.390Z,128.80
2017-12-19T07:37:43.406Z,128.40
2017-12-19T07:38:43.420Z,146.30
2017-12-19T07:39:43.437Z,127.10
2017-12-19T07:40:43.454Z,127.40
2017-12-19T07:41:43.469Z,118.70
2017-12-19T07:42:43.485Z,140.70
2017-12-19T07:43:43.502Z,136.10
2017-12-19T07:44:43.516Z,121.40
2017-12-19T07:45:43.535Z,124.00
2017-12-19T07:46:43.549Z,119.80
2017-12-19T07:47:43.565Z,118.00
2017-12-19T07:48:43.582Z,135.00
2017-12-19T07:49:43.596Z,131.60
2017-12-19T07:50:43.612Z,132.70
2017-12-19T07:51:43.629Z,131.40
2017-12-19T07:52:43.646Z,140.10
2017-12-19T07:53:43.660Z,129.00
2017-12-19T07:54:43.678Z,136.60
2017-12-19T07:55:43.694Z,133.40
2017-12-19T07:56:43.710Z,120.50
2017-12-19T07:57:43.725Z,126.30
2017-12-19T07:58:43.742Z,131.20
2017-12-19T07:59:43.757Z,123.40
2017-12-19T08:00:43.773Z,135.20
2017-12-19T08:01:43.788Z,126.80
2017-12-19T08:02:43.806Z,115.50
2017-12-19T08:03:43.821Z,131.70
2017-12-19T08:04:43.839Z,120.10
2017-12-19T08:05:43.856Z,130.20
2017-12-19T08:06:43.876Z,147.10
2017-12-19T08:07:43.885Z,132.70
2017-12-19T08:08:43.906Z,118.00
2017-12-19T08:09:43.918Z,133.90
2017-12-19T08:10:43.934Z,126.20
2017-12-19T08:11:43.951Z,133.00
2017-12-19T08:12:43.966Z,138.50
2017-12-19T08:13:43.981Z,134.50
2017-12-19T08:14:43.998Z,152.80
2017-12-19T08:15:44.015Z,144.40
2017-12-19T08:16:44.032Z,150.70
2017-12-19T08:17:44.047Z,146.00
2017-12-19T08:18:44.062Z,146.80
2017-12-19T08:19:44.130Z,147.40
2017-12-19T08:20:44.095Z,133.30
2017-12-19T08:21:44.110Z,134.40
2017-12-19T08:22:44.126Z,136.30
2017-12-19T08:23:44.144Z,140.20
2017-12-19T08:24:44.159Z,143.80
2017-12-19T08:25:44.175Z,129.50
2017-12-19T08:26:44.191Z,137.50
2017-12-19T08:27:44.209Z,122.00
2017-12-19T08:28:44.223Z,144.00
2017-12-19T08:29:44.240Z,152.50
2017-12-19T08:30:44.304Z,157.90
2017-12-19T08:31:44.271Z,157.00
2017-12-19T08:32:44.288Z,154.00
2017-12-19T08:33:44.302Z,162.40
2017-12-19T08:34:44.319Z,161.60
2017-12-19T08:35:44.339Z,160.10
2017-12-19T08:36:44.351Z,170.60
2017-12-19T08:37:44.368Z,159.90
2017-12-19T08:38:44.536Z,160.10
2017-12-19T08:39:44.401Z,159.80
2017-12-19T08:40:44.419Z,173.20
2017-12-19T08:41:44.432Z,164.30
2017-12-19T08:42:44.449Z,187.10
2017-12-19T08:43:44.466Z,178.20
2017-12-19T08:44:44.481Z,156.10
2017-12-19T08:45:44.496Z,159.30
2017-12-19T08:46:44.513Z,143.60
2017-12-19T08:47:44.529Z,143.80
2017-12-19T08:48:44.573Z,141.60
2017-12-19T08:49:44.559Z,143.10
2017-12-19T08:50:44.577Z,140.60
2017-12-19T08:51:44.594Z,134.00
2017-12-19T08:52:44.608Z,131.00
2017-12-19T08:53:44.625Z,125.80
2017-12-19T08:54:44.640Z,127.20
2017-12-19T08:55:44.709Z,135.40
2017-12-19T08:56:44.675Z,130.90
2017-12-19T08:57:44.689Z,130.40
2017-12-19T08:58:44.708Z,132.10
2017-12-19T08:59:44.722Z,135.40
2017-12-19T09:00:44.738Z,128.50
2017-12-19T09:01:44.754Z,126.20
2017-12-19T09:02:44.769Z,123.60
2017-12-19T09:03:44.786Z,122.60
2017-12-19T09:04:44.803Z,125.10
2017-12-19T09:05:44.817Z,131.20
2017-12-19T09:06:44.839Z,120.90
2017-12-19T09:07:44.850Z,114.70
2017-12-19T09:08:44.866Z,110.10
2017-12-19T09:09:44.882Z,131.80
2017-12-19T09:10:44.897Z,113.60
2017-12-19T09:11:44.913Z,109.20
2017-12-19T09:12:44.931Z,110.50
2017-12-19T09:13:44.945Z,107.10
2017-12-19T09:14:44.962Z,123.90
2017-12-19T09:15:45.029Z,118.00
2017-12-19T09:16:44.995Z,112.00
2017-12-19T09:17:45.016Z,118.50
2017-12-19T09:18:45.027Z,111.80
2017-12-19T09:19:45.044Z,114.70
2017-12-19T09:20:45.059Z,107.90
2017-12-19T09:21:45.075Z,101.70
2017-12-19T09:22:45.092Z,106.30
2017-12-19T09:23:45.107Z,107.90
2017-12-19T09:24:45.124Z,99.20
2017-12-19T09:25:45.204Z,99.80
2017-12-19T09:26:45.156Z,90.80
2017-12-19T09:27:45.172Z,107.10
2017-12-19T09:28:45.195Z,102.20
2017-12-19T09:29:45.206Z,109.20
2017-12-19T09:30:45.221Z,90.80
2017-12-19T09:31:45.237Z,103.10
2017-12-19T09:32:45.252Z,102.90
2017-12-19T09:33:45.269Z,97.10
2017-12-19T09:34:45.286Z,99.20
2017-12-19T09:35:45.352Z,105.90
2017-12-19T09:36:45.319Z,95.00
2017-12-19T09:37:45.333Z,103.70
2017-12-19T09:38:45.352Z,95.50
2017-12-19T09:39:45.404Z,93.40
2017-12-19T09:40:45.383Z,98.60
2017-12-19T09:41:45.400Z,98.90
2017-12-19T09:42:45.417Z,93.20
2017-12-19T09:43:45.432Z,95.10
2017-12-19T09:44:45.449Z,106.50
2017-12-19T09:45:45.464Z,105.60
2017-12-19T09:46:45.537Z,100.00
2017-12-19T09:47:45.498Z,93.10
2017-12-19T09:48:45.515Z,99.70
2017-12-19T09:49:45.530Z,91.20
2017-12-19T09:50:45.545Z,98.00
2017-12-19T09:51:45.562Z,96.20
2017-12-19T09:52:45.579Z,97.80
2017-12-19T09:53:45.595Z,97.50
2017-12-19T09:54:45.610Z,77.90
2017-12-19T09:55:45.638Z,87.90
2017-12-19T09:56:45.645Z,89.90
2017-12-19T09:57:45.658Z,85.70
2017-12-19T09:58:45.677Z,92.40
2017-12-19T09:59:45.693Z,92.60
2017-12-19T10:00:45.709Z,92.40
2017-12-19T10:01:45.725Z,90.80
2017-12-19T10:02:45.742Z,80.70
2017-12-19T10:03:45.759Z,86.50
2017-12-19T10:04:45.776Z,82.60
2017-12-19T10:05:45.795Z,85.00
2017-12-19T10:06:45.858Z,96.70
2017-12-19T10:07:45.824Z,80.10
2017-12-19T10:08:45.840Z,78.40
2017-12-19T10:09:45.856Z,83.40
2017-12-19T10:10:45.874Z,81.60
2017-12-19T10:11:45.890Z,79.10
2017-12-19T10:12:45.907Z,89.70
2017-12-19T10:13:45.922Z,86.80
2017-12-19T10:14:45.940Z,86.90
2017-12-19T10:15:45.956Z,91.20
2017-12-19T10:16:45.973Z,77.00
2017-12-19T10:17:45.988Z,82.10
2017-12-19T10:18:46.004Z,85.30
2017-12-19T10:19:46.023Z,80.40
2017-12-19T10:20:46.039Z,80.00
2017-12-19T10:21:46.054Z,81.20
2017-12-19T10:22:46.071Z,83.00
2017-12-19T10:23:46.093Z,80.60
2017-12-19T10:24:46.106Z,81.50
2017-12-19T10:25:46.123Z,74.60
2017-12-19T10:26:46.142Z,74.70
2017-12-19T10:27:46.157Z,68.60
2017-12-19T10:28:46.172Z,78.50
2017-12-19T10:29:46.189Z,75.40
2017-12-19T10:30:46.207Z,62.00
2017-12-19T10:31:46.222Z,69.40
2017-12-19T10:32:46.240Z,68.20
2017-12-19T10:33:46.256Z,57.20
2017-12-19T10:34:46.273Z,64.60
2017-12-19T10:35:46.290Z,71.90
2017-12-19T10:36:46.308Z,59.20
2017-12-19T10:37:46.324Z,64.00
2017-12-19T10:38:46.341Z,67.70
2017-12-19T10:39:46.359Z,63.10
2017-12-19T10:40:46.388Z,62.90
2017-12-19T10:41:46.392Z,63.20
2017-12-19T10:42:46.410Z,69.90
2017-12-19T10:43:46.426Z,64.40
2017-12-19T10:44:46.494Z,65.20
2017-12-19T10:45:46.460Z,66.50
2017-12-19T10:46:46.476Z,60.90
2017-12-19T10:47:46.494Z,63.60
2017-12-19T10:48:46.519Z,62.10
2017-12-19T10:49:46.527Z,57.40
2017-12-19T10:50:46.544Z,58.80
2017-12-19T10:51:46.563Z,49.10
2017-12-19T10:52:46.580Z,57.80
2017-12-19T10:53:46.603Z,57.90
2017-12-19T10:54:46.627Z,52.40
2017-12-19T10:55:46.631Z,56.70
2017-12-19T10:56:46.656Z,58.50
2017-12-19T10:57:46.665Z,57.70
2017-12-19T10:58:46.683Z,61.70
2017-12-19T10:59:46.701Z,56.00
2017-12-19T11:00:46.716Z,51.90
2017-12-19T11:01:46.734Z,55.90
2017-12-19T11:02:46.752Z,51.70
2017-12-19T11:03:46.771Z,55.60
2017-12-19T11:04:46.784Z,54.60
2017-12-19T11:05:46.803Z,55.70
2017-12-19T11:06:46.821Z,52.70
2017-12-19T11:07:46.838Z,57.00
2017-12-19T11:08:46.855Z,53.80
2017-12-19T11:09:46.870Z,53.80
2017-12-19T11:10:46.888Z,55.10
2017-12-19T11:11:46.907Z,54.10
2017-12-19T11:12:46.925Z,47.50
2017-12-19T11:13:46.943Z,55.90
2017-12-19T11:14:46.959Z,52.90
2017-12-19T11:15:46.979Z,52.10
2017-12-19T11:16:46.993Z,59.80
2017-12-19T11:17:47.009Z,50.70
2017-12-19T11:18:47.028Z,53.80
2017-12-19T11:19:47.044Z,47.10
2017-12-19T11:20:47.061Z,58.40
2017-12-19T11:21:47.079Z,51.30
2017-12-19T11:22:47.147Z,48.00
2017-12-19T11:23:47.114Z,43.70
2017-12-19T11:24:47.132Z,50.50
2017-12-19T11:25:47.148Z,50.80
2017-12-19T11:26:47.165Z,49.60
2017-12-19T11:27:47.232Z,46.10
2017-12-19T11:28:47.200Z,48.70
2017-12-19T11:29:47.220Z,53.40
2017-12-19T11:30:47.235Z,53.70
2017-12-19T11:31:47.252Z,50.00
2017-12-19T11:32:47.270Z,51.50
2017-12-19T11:33:47.286Z,51.30
2017-12-19T11:34:47.303Z,53.40
2017-12-19T11:35:47.320Z,58.20
2017-12-19T11:36:47.339Z,56.20
2017-12-19T11:37:47.354Z,56.90
2017-12-19T11:38:47.373Z,60.10
2017-12-19T11:39:47.441Z,57.00
2017-12-19T11:40:47.408Z,60.90
2017-12-19T11:41:47.424Z,60.30
2017-12-19T11:42:47.444Z,61.90
2017-12-19T11:43:47.459Z,55.20
2017-12-19T11:44:47.475Z,61.40
2017-12-19T11:45:47.492Z,57.00
2017-12-19T11:46:47.511Z,66.80
2017-12-19T11:47:47.527Z,62.70
2017-12-19T11:48:47.545Z,70.30
2017-12-19T11:49:47.561Z,67.60
2017-12-19T11:50:47.578Z,59.00
2017-12-19T11:51:47.596Z,62.20
2017-12-19T11:52:47.614Z,67.00
2017-12-19T11:53:47.630Z,63.60
2017-12-19T11:54:47.647Z,64.10
2017-12-19T11:55:47.666Z,63.70
2017-12-19T11:56:47.681Z,60.90
2017-12-19T11:57:47.698Z,57.60
2017-12-19T11:58:47.715Z,54.60
2017-12-19T11:59:47.732Z,58.40
2017-12-19T12:00:47.751Z,59.90
2017-12-19T12:01:47.766Z,56.10
2017-12-19T12:02:47.784Z,62.50
2017-12-19T12:03:47.802Z,62.50
2017-12-19T12:04:47.819Z,63.10
2017-12-19T12:05:47.836Z,65.20
2017-12-19T12:06:47.853Z,59.50
2017-12-19T12:07:47.870Z,61.90
2017-12-19T12:08:47.888Z,58.70
2017-12-19T12:09:47.904Z,62.40
2017-12-19T12:10:47.922Z,62.00
2017-12-19T12:11:47.938Z,57.60
2017-12-19T12:12:47.956Z,50.90
2017-12-19T12:13:47.979Z,60.40
2017-12-19T12:14:47.991Z,58.90
2017-12-19T12:15:48.007Z,58.00
2017-12-19T12:16:48.026Z,63.50
2017-12-19T12:17:48.043Z,64.90
2017-12-19T12:18:48.059Z,59.00
2017-12-19T12:19:48.078Z,62.90
2017-12-19T12:20:48.097Z,65.30
2017-12-19T12:21:48.217Z,60.40
2017-12-19T12:22:48.129Z,61.10
2017-12-19T12:23:48.147Z,63.30
2017-12-19T12:24:48.164Z,62.80
2017-12-19T12:25:48.203Z,63.90
2017-12-19T12:26:48.199Z,60.10
2017-12-19T12:27:48.215Z,59.50
2017-12-19T12:28:48.232Z,60.50
2017-12-19T12:29:48.250Z,63.80
2017-12-19T12:30:48.267Z,55.70
2017-12-19T12:31:48.284Z,61.00
2017-12-19T12:32:48.302Z,59.70
2017-12-19T12:33:48.319Z,62.80
2017-12-19T12:34:48.335Z,58.80
2017-12-19T12:35:48.354Z,61.20
2017-12-19T12:36:48.372Z,59.00
2017-12-19T12:37:48.387Z,59.70
2017-12-19T12:38:48.406Z,51.60